PWSweather.com
Personal Weather Stations
Station Observations
ATMSUNCA
North Asheville, Asheville, NC 28804

North AshevilleAsheville, NC 28804

Lat: 35.6149447, Lon: -82.56638909999998

Elevation: 2166

Station Type: Davis Vantage Pro 2

Latest ConditionsUpdated 12:40:05 PM EST Tuesday, Jan 22, 2019
Currently Today's Max Today's Min Today's Average
Temperature 36.8°F2.7°C 36.8°F2.7°C 21.5°F-5.8°C 25.6°F-3.6°C
Dew Point 5.1°F-14.9°C 12.7°F-10.7°C 1.8°F-16.8°C 6.6°F-14.1°C
Winds 14.0 mph WSW22.5 kmh WSW 14.0 mph -22.5 kmh - - 3.9 mph 6.3 kmh
Wind Gusts 17.0 mph27.4 kmh 17.0 mph27.4 kmh - -
Humidity 26% 65% 26% 45%
Pressure 30.69 in1039.3 mb 30.76 in1041.7 mb 30.64 in1037.6 mb -
Hour Temp Dew Point Humidity Winds Wind Gusts Pressure Precip Precip Rate Daily Precip Total
12:40 PM 36.8°F2.7°C 5.1°F-14.9°C 26% 14.0 mph WSW22.5 kmh WSW 17.0 mph27.4 kmh 30.69 in1039.3 mb 0.00 in0.0 mm 0.00 in0.0 mm 0.00 in0.0 mm
12:35 PM 36.8°F2.7°C 6.0°F-14.4°C 27% 12.0 mph SSE19.3 kmh SSE 12.0 mph19.3 kmh 30.69 in1039.3 mb 0.00 in0.0 mm 0.00 in0.0 mm 0.00 in0.0 mm
12:30 PM 36.4°F2.4°C 6.4°F-14.2°C 28% 5.0 mph NNE8.0 kmh NNE 13.0 mph20.9 kmh 30.70 in1039.6 mb 0.00 in0.0 mm 0.00 in0.0 mm 0.00 in0.0 mm
12:25 PM 36.3°F2.4°C 5.5°F-14.7°C 27% 7.0 mph SSE11.3 kmh SSE 13.0 mph20.9 kmh 30.70 in1039.6 mb 0.00 in0.0 mm 0.00 in0.0 mm 0.00 in0.0 mm
12:20 PM 36.2°F2.3°C 7.0°F-13.9°C 29% 8.0 mph SW12.9 kmh SW 13.0 mph20.9 kmh 30.70 in1039.6 mb 0.00 in0.0 mm 0.00 in0.0 mm 0.00 in0.0 mm
12:15 PM 35.7°F2.1°C 5.0°F-15.0°C 27% 3.0 mph E4.8 kmh E 13.0 mph20.9 kmh 30.71 in1040.0 mb 0.00 in0.0 mm 0.00 in0.0 mm 0.00 in0.0 mm
12:10 PM 35.5°F1.9°C 5.6°F-14.7°C 28% 5.0 mph SE8.0 kmh SE 13.0 mph20.9 kmh 30.71 in1040.0 mb 0.00 in0.0 mm 0.00 in0.0 mm 0.00 in0.0 mm
12:05 PM 35.2°F1.8°C 6.9°F-13.9°C 30% 5.0 mph SW8.0 kmh SW 5.0 mph8.0 kmh 30.71 in1040.0 mb 0.00 in0.0 mm 0.00 in0.0 mm 0.00 in0.0 mm
12:00 PM 34.9°F1.6°C 7.4°F-13.7°C 31% 4.0 mph SSW6.4 kmh SSW 17.0 mph27.4 kmh 30.72 in1040.3 mb 0.00 in0.0 mm 0.00 in0.0 mm 0.00 in0.0 mm
11:55 AM 34.2°F1.2°C 5.3°F-14.8°C 29% 6.0 mph S9.7 kmh S 17.0 mph27.4 kmh 30.72 in1040.3 mb 0.00 in0.0 mm 0.00 in0.0 mm 0.00 in0.0 mm
11:50 AM 34.0°F1.1°C 5.8°F-14.6°C 30% 6.0 mph ENE9.7 kmh ENE 17.0 mph27.4 kmh 30.72 in1040.3 mb 0.00 in0.0 mm 0.00 in0.0 mm 0.00 in0.0 mm
11:45 AM 33.9°F1.1°C 5.0°F-15.0°C 29% 7.0 mph E11.3 kmh E 15.0 mph24.1 kmh 30.72 in1040.3 mb 0.00 in0.0 mm 0.00 in0.0 mm 0.00 in0.0 mm
11:40 AM 33.7°F0.9°C 5.6°F-14.7°C 30% 6.0 mph SE9.7 kmh SE 15.0 mph24.1 kmh 30.73 in1040.6 mb 0.00 in0.0 mm 0.00 in0.0 mm 0.00 in0.0 mm
11:35 AM 33.6°F0.9°C 6.2°F-14.3°C 31% 9.0 mph SSE14.5 kmh SSE 9.0 mph14.5 kmh 30.73 in1040.6 mb 0.00 in0.0 mm 0.00 in0.0 mm 0.00 in0.0 mm
11:30 AM 33.3°F0.7°C 6.6°F-14.1°C 32% 7.0 mph SSW11.3 kmh SSW 13.0 mph20.9 kmh 30.74 in1041.0 mb 0.00 in0.0 mm 0.00 in0.0 mm 0.00 in0.0 mm
11:25 AM 32.9°F0.5°C 6.3°F-14.3°C 32% 9.0 mph S14.5 kmh S 13.0 mph20.9 kmh 30.74 in1041.0 mb 0.00 in0.0 mm 0.00 in0.0 mm 0.00 in0.0 mm
11:20 AM 32.6°F0.3°C 6.0°F-14.4°C 32% 3.0 mph SE4.8 kmh SE 13.0 mph20.9 kmh 30.74 in1041.0 mb 0.00 in0.0 mm 0.00 in0.0 mm 0.00 in0.0 mm
11:15 AM 32.4°F0.2°C 6.5°F-14.2°C 33% 5.0 mph ESE8.0 kmh ESE 13.0 mph20.9 kmh 30.74 in1041.0 mb 0.00 in0.0 mm 0.00 in0.0 mm 0.00 in0.0 mm
11:10 AM 32.0°F0.0°C 6.2°F-14.3°C 33% 6.0 mph SE9.7 kmh SE 13.0 mph20.9 kmh 30.74 in1041.0 mb 0.00 in0.0 mm 0.00 in0.0 mm 0.00 in0.0 mm
11:05 AM 31.6°F-0.2°C 5.8°F-14.6°C 33% 9.0 mph ESE14.5 kmh ESE 12.0 mph19.3 kmh 30.74 in1041.0 mb 0.00 in0.0 mm 0.00 in0.0 mm 0.00 in0.0 mm
11:00 AM 31.4°F-0.3°C 5.0°F-15.0°C 32% 7.0 mph SSE11.3 kmh SSE 16.0 mph25.7 kmh 30.74 in1041.0 mb 0.00 in0.0 mm 0.00 in0.0 mm 0.00 in0.0 mm
10:55 AM 31.5°F-0.3°C 5.7°F-14.6°C 33% 5.0 mph S8.0 kmh S 14.0 mph22.5 kmh 30.75 in1041.3 mb 0.00 in0.0 mm 0.00 in0.0 mm 0.00 in0.0 mm
10:50 AM 31.1°F-0.5°C 4.7°F-15.2°C 32% 6.0 mph SSE9.7 kmh SSE 14.0 mph22.5 kmh 30.75 in1041.3 mb 0.00 in0.0 mm 0.00 in0.0 mm 0.00 in0.0 mm
10:45 AM 30.7°F-0.7°C 4.4°F-15.3°C 32% 3.0 mph S4.8 kmh S 13.0 mph20.9 kmh 30.75 in1041.3 mb 0.00 in0.0 mm 0.00 in0.0 mm 0.00 in0.0 mm
10:40 AM 30.3°F-0.9°C 4.7°F-15.2°C 33% 4.0 mph WSW6.4 kmh WSW 10.0 mph16.1 kmh 30.75 in1041.3 mb 0.00 in0.0 mm 0.00 in0.0 mm 0.00 in0.0 mm
10:35 AM 30.1°F-1.1°C 4.5°F-15.3°C 33% 6.0 mph SE9.7 kmh SE 9.0 mph14.5 kmh 30.75 in1041.3 mb 0.00 in0.0 mm 0.00 in0.0 mm 0.00 in0.0 mm
10:30 AM 29.7°F-1.3°C 4.1°F-15.5°C 33% 2.0 mph NE3.2 kmh NE 14.0 mph22.5 kmh 30.75 in1041.3 mb 0.00 in0.0 mm 0.00 in0.0 mm 0.00 in0.0 mm
10:25 AM 29.6°F-1.3°C 4.0°F-15.6°C 33% 7.0 mph SSE11.3 kmh SSE 14.0 mph22.5 kmh 30.75 in1041.3 mb 0.00 in0.0 mm 0.00 in0.0 mm 0.00 in0.0 mm
10:20 AM 29.5°F-1.4°C 3.3°F-15.9°C 32% 14.0 mph WSW22.5 kmh WSW 14.0 mph22.5 kmh 30.75 in1041.3 mb 0.00 in0.0 mm 0.00 in0.0 mm 0.00 in0.0 mm
10:15 AM 29.2°F-1.6°C 3.7°F-15.7°C 33% 9.0 mph SE14.5 kmh SE 12.0 mph19.3 kmh 30.75 in1041.3 mb 0.00 in0.0 mm 0.00 in0.0 mm 0.00 in0.0 mm
10:10 AM 29.2°F-1.6°C 3.7°F-15.7°C 33% 10.0 mph SE16.1 kmh SE 12.0 mph19.3 kmh 30.75 in1041.3 mb 0.00 in0.0 mm 0.00 in0.0 mm 0.00 in0.0 mm
10:05 AM 29.0°F-1.7°C 4.2°F-15.4°C 34% 7.0 mph SE11.3 kmh SE 12.0 mph19.3 kmh 30.75 in1041.3 mb 0.00 in0.0 mm 0.00 in0.0 mm 0.00 in0.0 mm
10:00 AM 28.6°F-1.9°C 3.2°F-16.0°C 33% 6.0 mph NE9.7 kmh NE 15.0 mph24.1 kmh 30.75 in1041.3 mb 0.00 in0.0 mm 0.00 in0.0 mm 0.00 in0.0 mm
09:55 AM 28.6°F-1.9°C 2.5°F-16.4°C 32% 4.0 mph NE6.4 kmh NE 15.0 mph24.1 kmh 30.75 in1041.3 mb 0.00 in0.0 mm 0.00 in0.0 mm 0.00 in0.0 mm
09:50 AM 28.3°F-2.1°C 2.2°F-16.6°C 32% 8.0 mph SSE12.9 kmh SSE 15.0 mph24.1 kmh 30.75 in1041.3 mb 0.00 in0.0 mm 0.00 in0.0 mm 0.00 in0.0 mm
09:45 AM 28.1°F-2.2°C 3.4°F-15.9°C 34% 2.0 mph SSE3.2 kmh SSE 13.0 mph20.9 kmh 30.75 in1041.3 mb 0.00 in0.0 mm 0.00 in0.0 mm 0.00 in0.0 mm
09:40 AM 27.8°F-2.3°C 1.8°F-16.8°C 32% 9.0 mph SW14.5 kmh SW 13.0 mph20.9 kmh 30.75 in1041.3 mb 0.00 in0.0 mm 0.00 in0.0 mm 0.00 in0.0 mm
09:35 AM 27.7°F-2.4°C 2.4°F-16.4°C 33% 4.0 mph NW6.4 kmh NW 5.0 mph8.0 kmh 30.75 in1041.3 mb 0.00 in0.0 mm 0.00 in0.0 mm 0.00 in0.0 mm
09:30 AM 27.6°F-2.4°C 2.3°F-16.5°C 33% 3.0 mph SE4.8 kmh SE 13.0 mph20.9 kmh 30.75 in1041.3 mb 0.00 in0.0 mm 0.00 in0.0 mm 0.00 in0.0 mm
09:25 AM 27.3°F-2.6°C 2.7°F-16.3°C 34% 7.0 mph SW11.3 kmh SW 13.0 mph20.9 kmh 30.75 in1041.3 mb 0.00 in0.0 mm 0.00 in0.0 mm 0.00 in0.0 mm
09:20 AM 27.1°F-2.7°C 3.1°F-16.1°C 35% 8.0 mph S12.9 kmh S 12.0 mph19.3 kmh 30.75 in1041.3 mb 0.00 in0.0 mm 0.00 in0.0 mm 0.00 in0.0 mm
09:15 AM 26.7°F-2.9°C 2.7°F-16.3°C 35% 2.0 mph E3.2 kmh E 12.0 mph19.3 kmh 30.74 in1041.0 mb 0.00 in0.0 mm 0.00 in0.0 mm 0.00 in0.0 mm
09:10 AM 26.3°F-3.2°C 2.4°F-16.4°C 35% 5.0 mph ESE8.0 kmh ESE 12.0 mph19.3 kmh 30.75 in1041.3 mb 0.00 in0.0 mm 0.00 in0.0 mm 0.00 in0.0 mm
09:05 AM 26.0°F-3.3°C 3.3°F-15.9°C 37% 1.0 mph NNW1.6 kmh NNW 3.0 mph4.8 kmh 30.75 in1041.3 mb 0.00 in0.0 mm 0.00 in0.0 mm 0.00 in0.0 mm
09:00 AM 25.8°F-3.4°C 3.7°F-15.7°C 38% 7.0 mph N11.3 kmh N 14.0 mph22.5 kmh 30.74 in1041.0 mb 0.00 in0.0 mm 0.00 in0.0 mm 0.00 in0.0 mm
08:55 AM 25.4°F-3.7°C 3.4°F-15.9°C 38% 6.0 mph S9.7 kmh S 12.0 mph19.3 kmh 30.75 in1041.3 mb 0.00 in0.0 mm 0.00 in0.0 mm 0.00 in0.0 mm
08:50 AM 25.1°F-3.8°C 3.1°F-16.1°C 38% 5.0 mph SSE8.0 kmh SSE 12.0 mph19.3 kmh 30.75 in1041.3 mb 0.00 in0.0 mm 0.00 in0.0 mm 0.00 in0.0 mm
08:45 AM 24.8°F-4.0°C 3.4°F-15.9°C 39% 6.0 mph E9.7 kmh E 9.0 mph14.5 kmh 30.75 in1041.3 mb 0.00 in0.0 mm 0.00 in0.0 mm 0.00 in0.0 mm
08:40 AM 24.4°F-4.2°C 3.6°F-15.8°C 40% 2.0 mph SW3.2 kmh SW 9.0 mph14.5 kmh 30.75 in1041.3 mb 0.00 in0.0 mm 0.00 in0.0 mm 0.00 in0.0 mm
08:35 AM 24.0°F-4.4°C 4.3°F-15.4°C 42% 2.0 mph E3.2 kmh E 2.0 mph3.2 kmh 30.75 in1041.3 mb 0.00 in0.0 mm 0.00 in0.0 mm 0.00 in0.0 mm
08:30 AM 23.6°F-4.7°C 4.4°F-15.3°C 43% 3.0 mph SW4.8 kmh SW 13.0 mph20.9 kmh 30.75 in1041.3 mb 0.00 in0.0 mm 0.00 in0.0 mm 0.00 in0.0 mm
08:25 AM 23.3°F-4.8°C 5.1°F-14.9°C 45% 5.0 mph SSE8.0 kmh SSE 13.0 mph20.9 kmh 30.75 in1041.3 mb 0.00 in0.0 mm 0.00 in0.0 mm 0.00 in0.0 mm
08:20 AM 22.9°F-5.1°C 5.2°F-14.9°C 46% 4.0 mph S6.4 kmh S 13.0 mph20.9 kmh 30.75 in1041.3 mb 0.00 in0.0 mm 0.00 in0.0 mm 0.00 in0.0 mm
08:15 AM 22.7°F-5.2°C 4.6°F-15.2°C 45% 3.0 mph NW4.8 kmh NW 13.0 mph20.9 kmh 30.76 in1041.7 mb 0.00 in0.0 mm 0.00 in0.0 mm 0.00 in0.0 mm
08:10 AM 22.6°F-5.2°C 4.5°F-15.3°C 45% 5.0 mph SSW8.0 kmh SSW 10.0 mph16.1 kmh 30.76 in1041.7 mb 0.00 in0.0 mm 0.00 in0.0 mm 0.00 in0.0 mm
08:05 AM 22.4°F-5.3°C 4.3°F-15.4°C 45% 10.0 mph S16.1 kmh S 10.0 mph16.1 kmh 30.75 in1041.3 mb 0.00 in0.0 mm 0.00 in0.0 mm 0.00 in0.0 mm
08:00 AM 22.4°F-5.3°C 4.3°F-15.4°C 45% 5.0 mph S8.0 kmh S 12.0 mph19.3 kmh 30.75 in1041.3 mb 0.00 in0.0 mm 0.00 in0.0 mm 0.00 in0.0 mm
07:55 AM 22.4°F-5.3°C 3.8°F-15.7°C 44% 3.0 mph NE4.8 kmh NE 12.0 mph19.3 kmh 30.75 in1041.3 mb 0.00 in0.0 mm 0.00 in0.0 mm 0.00 in0.0 mm
07:50 AM 22.3°F-5.4°C 4.2°F-15.4°C 45% 4.0 mph S6.4 kmh S 10.0 mph16.1 kmh 30.74 in1041.0 mb 0.00 in0.0 mm 0.00 in0.0 mm 0.00 in0.0 mm
07:45 AM 22.3°F-5.4°C 4.2°F-15.4°C 45% 1.0 mph NE1.6 kmh NE 10.0 mph16.1 kmh 30.74 in1041.0 mb 0.00 in0.0 mm 0.00 in0.0 mm 0.00 in0.0 mm
07:40 AM 22.4°F-5.3°C 4.3°F-15.4°C 45% 4.0 mph ENE6.4 kmh ENE 10.0 mph16.1 kmh 30.75 in1041.3 mb 0.00 in0.0 mm 0.00 in0.0 mm 0.00 in0.0 mm
07:35 AM 22.5°F-5.3°C 3.9°F-15.6°C 44% 5.0 mph S8.0 kmh S 5.0 mph8.0 kmh 30.74 in1041.0 mb 0.00 in0.0 mm 0.00 in0.0 mm 0.00 in0.0 mm
07:30 AM 22.6°F-5.2°C 4.0°F-15.6°C 44% 8.0 mph S12.9 kmh S 12.0 mph19.3 kmh 30.74 in1041.0 mb 0.00 in0.0 mm 0.00 in0.0 mm 0.00 in0.0 mm
07:25 AM 22.6°F-5.2°C 4.0°F-15.6°C 44% 6.0 mph SSE9.7 kmh SSE 12.0 mph19.3 kmh 30.74 in1041.0 mb 0.00 in0.0 mm 0.00 in0.0 mm 0.00 in0.0 mm
07:20 AM 22.7°F-5.2°C 4.1°F-15.5°C 44% 2.0 mph NNE3.2 kmh NNE 12.0 mph19.3 kmh 30.74 in1041.0 mb 0.00 in0.0 mm 0.00 in0.0 mm 0.00 in0.0 mm
07:15 AM 22.6°F-5.2°C 4.0°F-15.6°C 44% 6.0 mph ESE9.7 kmh ESE 10.0 mph16.1 kmh 30.73 in1040.6 mb 0.00 in0.0 mm 0.00 in0.0 mm 0.00 in0.0 mm
07:10 AM 22.5°F-5.3°C 3.9°F-15.6°C 44% 3.0 mph E4.8 kmh E 10.0 mph16.1 kmh 30.73 in1040.6 mb 0.00 in0.0 mm 0.00 in0.0 mm 0.00 in0.0 mm
07:05 AM 22.3°F-5.4°C 3.7°F-15.7°C 44% 2.0 mph WSW3.2 kmh WSW 3.0 mph4.8 kmh 30.73 in1040.6 mb 0.00 in0.0 mm 0.00 in0.0 mm 0.00 in0.0 mm
07:00 AM 22.1°F-5.5°C 4.0°F-15.6°C 45% 4.0 mph E6.4 kmh E 11.0 mph17.7 kmh 30.73 in1040.6 mb 0.00 in0.0 mm 0.00 in0.0 mm 0.00 in0.0 mm
06:55 AM 22.0°F-5.6°C 4.9°F-15.1°C 47% 5.0 mph S8.0 kmh S 11.0 mph17.7 kmh 30.73 in1040.6 mb 0.00 in0.0 mm 0.00 in0.0 mm 0.00 in0.0 mm
06:50 AM 21.6°F-5.8°C 5.4°F-14.8°C 49% 3.0 mph W4.8 kmh W 10.0 mph16.1 kmh 30.73 in1040.6 mb 0.00 in0.0 mm 0.00 in0.0 mm 0.00 in0.0 mm
06:45 AM 21.5°F-5.8°C 6.2°F-14.3°C 51% 1.0 mph SE1.6 kmh SE 5.0 mph8.0 kmh 30.73 in1040.6 mb 0.00 in0.0 mm 0.00 in0.0 mm 0.00 in0.0 mm
06:40 AM 21.5°F-5.8°C 6.2°F-14.3°C 51% 1.0 mph S1.6 kmh S 5.0 mph8.0 kmh 30.73 in1040.6 mb 0.00 in0.0 mm 0.00 in0.0 mm 0.00 in0.0 mm
06:35 AM 21.5°F-5.8°C 6.6°F-14.1°C 52% 3.0 mph SSW4.8 kmh SSW 3.0 mph4.8 kmh 30.73 in1040.6 mb 0.00 in0.0 mm 0.00 in0.0 mm 0.00 in0.0 mm
06:30 AM 21.6°F-5.8°C 6.3°F-14.3°C 51% 1.0 mph S1.6 kmh S 6.0 mph9.7 kmh 30.73 in1040.6 mb 0.00 in0.0 mm 0.00 in0.0 mm 0.00 in0.0 mm
06:25 AM 21.5°F-5.8°C 6.6°F-14.1°C 52% 5.0 mph SW8.0 kmh SW 6.0 mph9.7 kmh 30.73 in1040.6 mb 0.00 in0.0 mm 0.00 in0.0 mm 0.00 in0.0 mm
06:20 AM 21.6°F-5.8°C 7.1°F-13.8°C 53% 3.0 mph SW4.8 kmh SW 6.0 mph9.7 kmh 30.72 in1040.3 mb 0.00 in0.0 mm 0.00 in0.0 mm 0.00 in0.0 mm
06:15 AM 21.6°F-5.8°C 7.1°F-13.8°C 53% 2.0 mph SE3.2 kmh SE 6.0 mph9.7 kmh 30.72 in1040.3 mb 0.00 in0.0 mm 0.00 in0.0 mm 0.00 in0.0 mm
06:10 AM 21.7°F-5.7°C 7.2°F-13.8°C 53% 4.0 mph ESE6.4 kmh ESE 6.0 mph9.7 kmh 30.72 in1040.3 mb 0.00 in0.0 mm 0.00 in0.0 mm 0.00 in0.0 mm
06:05 AM 21.7°F-5.7°C 7.6°F-13.6°C 54% 2.0 mph SSE3.2 kmh SSE 3.0 mph4.8 kmh 30.71 in1040.0 mb 0.00 in0.0 mm 0.00 in0.0 mm 0.00 in0.0 mm
06:00 AM 21.6°F-5.8°C 7.1°F-13.8°C 53% 1.0 mph SW1.6 kmh SW 6.0 mph9.7 kmh 30.71 in1040.0 mb 0.00 in0.0 mm 0.00 in0.0 mm 0.00 in0.0 mm
05:55 AM 21.6°F-5.8°C 7.1°F-13.8°C 53% Calm Calm 6.0 mph9.7 kmh 30.70 in1039.6 mb 0.00 in0.0 mm 0.00 in0.0 mm 0.00 in0.0 mm
05:50 AM 21.7°F-5.7°C 7.2°F-13.8°C 53% 3.0 mph S4.8 kmh S 6.0 mph9.7 kmh 30.70 in1039.6 mb 0.00 in0.0 mm 0.00 in0.0 mm 0.00 in0.0 mm
05:45 AM 21.9°F-5.6°C 7.4°F-13.7°C 53% 1.0 mph SSW1.6 kmh SSW 6.0 mph9.7 kmh 30.70 in1039.6 mb 0.00 in0.0 mm 0.00 in0.0 mm 0.00 in0.0 mm
05:40 AM 22.0°F-5.6°C 7.5°F-13.6°C 53% 2.0 mph SSE3.2 kmh SSE 6.0 mph9.7 kmh 30.70 in1039.6 mb 0.00 in0.0 mm 0.00 in0.0 mm 0.00 in0.0 mm
05:35 AM 22.1°F-5.5°C 7.6°F-13.6°C 53% 1.0 mph SSW1.6 kmh SSW 2.0 mph3.2 kmh 30.70 in1039.6 mb 0.00 in0.0 mm 0.00 in0.0 mm 0.00 in0.0 mm
05:30 AM 22.2°F-5.4°C 7.3°F-13.7°C 52% 2.0 mph W3.2 kmh W 8.0 mph12.9 kmh 30.69 in1039.3 mb 0.00 in0.0 mm 0.00 in0.0 mm 0.00 in0.0 mm
05:25 AM 22.3°F-5.4°C 7.4°F-13.7°C 52% 1.0 mph SE1.6 kmh SE 8.0 mph12.9 kmh 30.69 in1039.3 mb 0.00 in0.0 mm 0.00 in0.0 mm 0.00 in0.0 mm
05:20 AM 22.4°F-5.3°C 7.0°F-13.9°C 51% 2.0 mph SSW3.2 kmh SSW 8.0 mph12.9 kmh 30.69 in1039.3 mb 0.00 in0.0 mm 0.00 in0.0 mm 0.00 in0.0 mm
05:15 AM 22.4°F-5.3°C 6.6°F-14.1°C 50% 1.0 mph SE1.6 kmh SE 7.0 mph11.3 kmh 30.69 in1039.3 mb 0.00 in0.0 mm 0.00 in0.0 mm 0.00 in0.0 mm
05:10 AM 22.4°F-5.3°C 7.5°F-13.6°C 52% 1.0 mph NNW1.6 kmh NNW 7.0 mph11.3 kmh 30.69 in1039.3 mb 0.00 in0.0 mm 0.00 in0.0 mm 0.00 in0.0 mm
05:05 AM 22.6°F-5.2°C 7.2°F-13.8°C 51% 5.0 mph NNE8.0 kmh NNE 5.0 mph8.0 kmh 30.68 in1038.9 mb 0.00 in0.0 mm 0.00 in0.0 mm 0.00 in0.0 mm
05:00 AM 22.8°F-5.1°C 7.0°F-13.9°C 50% 2.0 mph SW3.2 kmh SW 5.0 mph8.0 kmh 30.68 in1038.9 mb 0.00 in0.0 mm 0.00 in0.0 mm 0.00 in0.0 mm
04:55 AM 22.8°F-5.1°C 6.5°F-14.2°C 49% 2.0 mph WSW3.2 kmh WSW 5.0 mph8.0 kmh 30.68 in1038.9 mb 0.00 in0.0 mm 0.00 in0.0 mm 0.00 in0.0 mm
04:50 AM 22.9°F-5.1°C 6.6°F-14.1°C 49% 2.0 mph SSW3.2 kmh SSW 5.0 mph8.0 kmh 30.68 in1038.9 mb 0.00 in0.0 mm 0.00 in0.0 mm 0.00 in0.0 mm
04:45 AM 23.0°F-5.0°C 6.7°F-14.1°C 49% 2.0 mph SW3.2 kmh SW 5.0 mph8.0 kmh 30.68 in1038.9 mb 0.00 in0.0 mm 0.00 in0.0 mm 0.00 in0.0 mm
04:40 AM 23.0°F-5.0°C 6.3°F-14.3°C 48% 2.0 mph WSW3.2 kmh WSW 5.0 mph8.0 kmh 30.68 in1038.9 mb 0.00 in0.0 mm 0.00 in0.0 mm 0.00 in0.0 mm
04:35 AM 23.0°F-5.0°C 6.7°F-14.1°C 49% 3.0 mph SW4.8 kmh SW 3.0 mph4.8 kmh 30.68 in1038.9 mb 0.00 in0.0 mm 0.00 in0.0 mm 0.00 in0.0 mm
04:30 AM 22.9°F-5.1°C 7.1°F-13.8°C 50% 3.0 mph S4.8 kmh S 6.0 mph9.7 kmh 30.68 in1038.9 mb 0.00 in0.0 mm 0.00 in0.0 mm 0.00 in0.0 mm
04:25 AM 22.9°F-5.1°C 7.1°F-13.8°C 50% Calm Calm 6.0 mph9.7 kmh 30.68 in1038.9 mb 0.00 in0.0 mm 0.00 in0.0 mm 0.00 in0.0 mm
04:20 AM 22.9°F-5.1°C 7.9°F-13.4°C 52% Calm Calm 6.0 mph9.7 kmh 30.68 in1038.9 mb 0.00 in0.0 mm 0.00 in0.0 mm 0.00 in0.0 mm
04:15 AM 22.8°F-5.1°C 8.3°F-13.2°C 53% 1.0 mph W1.6 kmh W 6.0 mph9.7 kmh 30.68 in1038.9 mb 0.00 in0.0 mm 0.00 in0.0 mm 0.00 in0.0 mm
04:10 AM 22.9°F-5.1°C 8.3°F-13.2°C 53% 4.0 mph WSW6.4 kmh WSW 6.0 mph9.7 kmh 30.68 in1038.9 mb 0.00 in0.0 mm 0.00 in0.0 mm 0.00 in0.0 mm
04:05 AM 23.0°F-5.0°C 8.0°F-13.3°C 52% 2.0 mph WSW3.2 kmh WSW 2.0 mph3.2 kmh 30.68 in1038.9 mb 0.00 in0.0 mm 0.00 in0.0 mm 0.00 in0.0 mm
04:00 AM 23.1°F-4.9°C 8.1°F-13.3°C 52% 2.0 mph WSW3.2 kmh WSW 7.0 mph11.3 kmh 30.69 in1039.3 mb 0.00 in0.0 mm 0.00 in0.0 mm 0.00 in0.0 mm
03:55 AM 23.0°F-5.0°C 8.4°F-13.1°C 53% 3.0 mph WSW4.8 kmh WSW 7.0 mph11.3 kmh 30.68 in1038.9 mb 0.00 in0.0 mm 0.00 in0.0 mm 0.00 in0.0 mm
03:50 AM 23.1°F-4.9°C 8.5°F-13.1°C 53% 2.0 mph S3.2 kmh S 5.0 mph8.0 kmh 30.68 in1038.9 mb 0.00 in0.0 mm 0.00 in0.0 mm 0.00 in0.0 mm
03:45 AM 23.2°F-4.9°C 8.6°F-13.0°C 53% 4.0 mph WSW6.4 kmh WSW 5.0 mph8.0 kmh 30.68 in1038.9 mb 0.00 in0.0 mm 0.00 in0.0 mm 0.00 in0.0 mm
03:40 AM 23.4°F-4.8°C 8.4°F-13.1°C 52% 2.0 mph SW3.2 kmh SW 5.0 mph8.0 kmh 30.68 in1038.9 mb 0.00 in0.0 mm 0.00 in0.0 mm 0.00 in0.0 mm
03:35 AM 23.5°F-4.7°C 8.5°F-13.1°C 52% 3.0 mph WNW4.8 kmh WNW 4.0 mph6.4 kmh 30.68 in1038.9 mb 0.00 in0.0 mm 0.00 in0.0 mm 0.00 in0.0 mm
03:30 AM 23.6°F-4.7°C 8.6°F-13.0°C 52% 1.0 mph WSW1.6 kmh WSW 7.0 mph11.3 kmh 30.68 in1038.9 mb 0.00 in0.0 mm 0.00 in0.0 mm 0.00 in0.0 mm
03:25 AM 23.6°F-4.7°C 8.1°F-13.3°C 51% 3.0 mph SW4.8 kmh SW 7.0 mph11.3 kmh 30.68 in1038.9 mb 0.00 in0.0 mm 0.00 in0.0 mm 0.00 in0.0 mm
03:20 AM 23.5°F-4.7°C 8.5°F-13.1°C 52% 1.0 mph SSE1.6 kmh SSE 7.0 mph11.3 kmh 30.68 in1038.9 mb 0.00 in0.0 mm 0.00 in0.0 mm 0.00 in0.0 mm
03:15 AM 23.9°F-4.5°C 8.9°F-12.8°C 52% 3.0 mph SW4.8 kmh SW 7.0 mph11.3 kmh 30.68 in1038.9 mb 0.00 in0.0 mm 0.00 in0.0 mm 0.00 in0.0 mm
03:10 AM 24.2°F-4.3°C 7.4°F-13.7°C 48% 6.0 mph SSW9.7 kmh SSW 6.0 mph9.7 kmh 30.68 in1038.9 mb 0.00 in0.0 mm 0.00 in0.0 mm 0.00 in0.0 mm
03:05 AM 24.3°F-4.3°C 7.9°F-13.4°C 49% 1.0 mph SE1.6 kmh SE 1.0 mph1.6 kmh 30.68 in1038.9 mb 0.00 in0.0 mm 0.00 in0.0 mm 0.00 in0.0 mm
03:00 AM 24.3°F-4.3°C 7.9°F-13.4°C 49% 7.0 mph SW11.3 kmh SW 10.0 mph16.1 kmh 30.68 in1038.9 mb 0.00 in0.0 mm 0.00 in0.0 mm 0.00 in0.0 mm
02:55 AM 24.3°F-4.3°C 8.4°F-13.1°C 50% 2.0 mph S3.2 kmh S 10.0 mph16.1 kmh 30.67 in1038.6 mb 0.00 in0.0 mm 0.00 in0.0 mm 0.00 in0.0 mm
02:50 AM 24.4°F-4.2°C 8.0°F-13.3°C 49% 4.0 mph WSW6.4 kmh WSW 8.0 mph12.9 kmh 30.67 in1038.6 mb 0.00 in0.0 mm 0.00 in0.0 mm 0.00 in0.0 mm
02:45 AM 24.6°F-4.1°C 8.2°F-13.2°C 49% 1.0 mph E1.6 kmh E 8.0 mph12.9 kmh 30.67 in1038.6 mb 0.00 in0.0 mm 0.00 in0.0 mm 0.00 in0.0 mm
02:40 AM 24.5°F-4.2°C 7.6°F-13.6°C 48% 7.0 mph SW11.3 kmh SW 7.0 mph11.3 kmh 30.67 in1038.6 mb 0.00 in0.0 mm 0.00 in0.0 mm 0.00 in0.0 mm
02:35 AM 24.5°F-4.2°C 8.1°F-13.3°C 49% 2.0 mph W3.2 kmh W 4.0 mph6.4 kmh 30.67 in1038.6 mb 0.00 in0.0 mm 0.00 in0.0 mm 0.00 in0.0 mm
02:30 AM 24.5°F-4.2°C 8.1°F-13.3°C 49% 3.0 mph S4.8 kmh S 8.0 mph12.9 kmh 30.66 in1038.3 mb 0.00 in0.0 mm 0.00 in0.0 mm 0.00 in0.0 mm
02:25 AM 24.5°F-4.2°C 8.1°F-13.3°C 49% 4.0 mph S6.4 kmh S 7.0 mph11.3 kmh 30.66 in1038.3 mb 0.00 in0.0 mm 0.00 in0.0 mm 0.00 in0.0 mm
02:20 AM 24.5°F-4.2°C 8.1°F-13.3°C 49% Calm Calm 7.0 mph11.3 kmh 30.66 in1038.3 mb 0.00 in0.0 mm 0.00 in0.0 mm 0.00 in0.0 mm
02:15 AM 24.4°F-4.2°C 8.0°F-13.3°C 49% 3.0 mph ENE4.8 kmh ENE 7.0 mph11.3 kmh 30.66 in1038.3 mb 0.00 in0.0 mm 0.00 in0.0 mm 0.00 in0.0 mm
02:10 AM 24.2°F-4.3°C 8.7°F-12.9°C 51% 2.0 mph SW3.2 kmh SW 7.0 mph11.3 kmh 30.66 in1038.3 mb 0.00 in0.0 mm 0.00 in0.0 mm 0.00 in0.0 mm
02:05 AM 24.3°F-4.3°C 8.4°F-13.1°C 50% 1.0 mph SE1.6 kmh SE 2.0 mph3.2 kmh 30.65 in1037.9 mb 0.00 in0.0 mm 0.00 in0.0 mm 0.00 in0.0 mm
02:00 AM 24.3°F-4.3°C 8.8°F-12.9°C 51% 3.0 mph E4.8 kmh E 7.0 mph11.3 kmh 30.65 in1037.9 mb 0.00 in0.0 mm 0.00 in0.0 mm 0.00 in0.0 mm
01:55 AM 24.3°F-4.3°C 8.8°F-12.9°C 51% 5.0 mph ESE8.0 kmh ESE 7.0 mph11.3 kmh 30.65 in1037.9 mb 0.00 in0.0 mm 0.00 in0.0 mm 0.00 in0.0 mm
01:50 AM 24.5°F-4.2°C 9.0°F-12.8°C 51% 2.0 mph SSW3.2 kmh SSW 7.0 mph11.3 kmh 30.66 in1038.3 mb 0.00 in0.0 mm 0.00 in0.0 mm 0.00 in0.0 mm
01:45 AM 24.6°F-4.1°C 9.1°F-12.7°C 51% 5.0 mph E8.0 kmh E 7.0 mph11.3 kmh 30.66 in1038.3 mb 0.00 in0.0 mm 0.00 in0.0 mm 0.00 in0.0 mm
01:40 AM 24.7°F-4.1°C 9.2°F-12.7°C 51% 4.0 mph S6.4 kmh S 7.0 mph11.3 kmh 30.66 in1038.3 mb 0.00 in0.0 mm 0.00 in0.0 mm 0.00 in0.0 mm
01:35 AM 24.7°F-4.1°C 9.2°F-12.7°C 51% 2.0 mph N3.2 kmh N 2.0 mph3.2 kmh 30.66 in1038.3 mb 0.00 in0.0 mm 0.00 in0.0 mm 0.00 in0.0 mm
01:30 AM 24.8°F-4.0°C 9.3°F-12.6°C 51% 2.0 mph NNE3.2 kmh NNE 11.0 mph17.7 kmh 30.66 in1038.3 mb 0.00 in0.0 mm 0.00 in0.0 mm 0.00 in0.0 mm
01:25 AM 24.7°F-4.1°C 9.6°F-12.4°C 52% 2.0 mph SE3.2 kmh SE 10.0 mph16.1 kmh 30.66 in1038.3 mb 0.00 in0.0 mm 0.00 in0.0 mm 0.00 in0.0 mm
01:20 AM 24.7°F-4.1°C 9.6°F-12.4°C 52% 7.0 mph SSW11.3 kmh SSW 8.0 mph12.9 kmh 30.66 in1038.3 mb 0.00 in0.0 mm 0.00 in0.0 mm 0.00 in0.0 mm
01:15 AM 24.7°F-4.1°C 9.6°F-12.4°C 52% 4.0 mph SSW6.4 kmh SSW 8.0 mph12.9 kmh 30.65 in1037.9 mb 0.00 in0.0 mm 0.00 in0.0 mm 0.00 in0.0 mm
01:10 AM 24.6°F-4.1°C 9.9°F-12.3°C 53% 1.0 mph S1.6 kmh S 7.0 mph11.3 kmh 30.65 in1037.9 mb 0.00 in0.0 mm 0.00 in0.0 mm 0.00 in0.0 mm
01:05 AM 24.6°F-4.1°C 9.9°F-12.3°C 53% 1.0 mph ENE1.6 kmh ENE 3.0 mph4.8 kmh 30.65 in1037.9 mb 0.00 in0.0 mm 0.00 in0.0 mm 0.00 in0.0 mm
01:00 AM 24.4°F-4.2°C 10.6°F-11.9°C 55% 3.0 mph W4.8 kmh W 9.0 mph14.5 kmh 30.65 in1037.9 mb 0.00 in0.0 mm 0.00 in0.0 mm 0.00 in0.0 mm
12:55 AM 24.3°F-4.3°C 10.1°F-12.2°C 54% 4.0 mph S6.4 kmh S 9.0 mph14.5 kmh 30.65 in1037.9 mb 0.00 in0.0 mm 0.00 in0.0 mm 0.00 in0.0 mm
12:50 AM 24.2°F-4.3°C 10.4°F-12.0°C 55% 1.0 mph ESE1.6 kmh ESE 9.0 mph14.5 kmh 30.65 in1037.9 mb 0.00 in0.0 mm 0.00 in0.0 mm 0.00 in0.0 mm
12:45 AM 24.0°F-4.4°C 10.6°F-11.9°C 56% 4.0 mph WSW6.4 kmh WSW 8.0 mph12.9 kmh 30.65 in1037.9 mb 0.00 in0.0 mm 0.00 in0.0 mm 0.00 in0.0 mm
12:40 AM 23.9°F-4.5°C 10.9°F-11.7°C 57% 3.0 mph SW4.8 kmh SW 7.0 mph11.3 kmh 30.65 in1037.9 mb 0.00 in0.0 mm 0.00 in0.0 mm 0.00 in0.0 mm
12:35 AM 23.9°F-4.5°C 11.3°F-11.5°C 58% 3.0 mph WNW4.8 kmh WNW 5.0 mph8.0 kmh 30.65 in1037.9 mb 0.00 in0.0 mm 0.00 in0.0 mm 0.00 in0.0 mm
12:30 AM 24.0°F-4.4°C 11.0°F-11.7°C 57% 2.0 mph WNW3.2 kmh WNW 9.0 mph14.5 kmh 30.65 in1037.9 mb 0.00 in0.0 mm 0.00 in0.0 mm 0.00 in0.0 mm
12:25 AM 24.0°F-4.4°C 11.0°F-11.7°C 57% 5.0 mph WSW8.0 kmh WSW 9.0 mph14.5 kmh 30.65 in1037.9 mb 0.00 in0.0 mm 0.00 in0.0 mm 0.00 in0.0 mm
12:20 AM 24.0°F-4.4°C 11.0°F-11.7°C 57% 3.0 mph WSW4.8 kmh WSW 9.0 mph14.5 kmh 30.65 in1037.9 mb 0.00 in0.0 mm 0.00 in0.0 mm 0.00 in0.0 mm
12:15 AM 23.8°F-4.6°C 11.6°F-11.3°C 59% 1.0 mph SW1.6 kmh SW 9.0 mph14.5 kmh 30.65 in1037.9 mb 0.00 in0.0 mm 0.00 in0.0 mm 0.00 in0.0 mm
12:10 AM 23.2°F-4.9°C 11.8°F-11.2°C 61% 4.0 mph SW6.4 kmh SW 7.0 mph11.3 kmh 30.65 in1037.9 mb 0.00 in0.0 mm 0.00 in0.0 mm 0.00 in0.0 mm
12:05 AM 22.7°F-5.2°C 12.7°F-10.7°C 65% 6.0 mph SW9.7 kmh SW 6.0 mph9.7 kmh 30.64 in1037.6 mb 0.00 in0.0 mm 0.00 in0.0 mm 0.00 in0.0 mm
12:00 AM 22.4°F-5.3°C 12.4°F-10.9°C 65% 1.0 mph W1.6 kmh W 5.0 mph8.0 kmh 30.65 in1037.9 mb 0.00 in0.0 mm 0.00 in0.0 mm 0.00 in0.0 mm